createdAt,value
2023-02-24T00:01:53.088Z,26.40
2023-02-24T00:04:21.230Z,27.23
2023-02-24T00:06:48.778Z,26.20
2023-02-24T00:09:22.120Z,26.17
2023-02-24T00:11:56.467Z,26.70
2023-02-24T00:14:25.838Z,27.43
2023-02-24T00:16:53.880Z,27.63
2023-02-24T00:19:23.729Z,25.50
2023-02-24T00:21:51.587Z,27.60
2023-02-24T00:24:18.926Z,25.50
2023-02-24T00:26:48.345Z,27.47
2023-02-24T00:29:15.886Z,28.40
2023-02-24T00:31:43.689Z,28.00
2023-02-24T00:34:15.127Z,28.37
2023-02-24T00:36:42.772Z,30.13
2023-02-24T00:39:11.705Z,28.53
2023-02-24T00:41:42.572Z,30.27
2023-02-24T00:44:13.640Z,27.87
2023-02-24T00:46:44.751Z,29.90
2023-02-24T00:49:18.641Z,27.10
2023-02-24T00:51:48.715Z,29.07
2023-02-24T00:54:17.616Z,28.43
2023-02-24T00:56:47.464Z,28.30
2023-02-24T00:59:18.779Z,28.93
2023-02-24T01:01:46.208Z,27.83
2023-02-24T01:04:14.314Z,31.93
2023-02-24T01:06:50.389Z,29.13
2023-02-24T01:09:21.050Z,28.97
2023-02-24T01:12:18.150Z,28.43
2023-02-24T01:14:47.783Z,29.37
2023-02-24T01:17:16.858Z,28.97
2023-02-24T01:19:45.198Z,28.87
2023-02-24T01:22:15.146Z,29.43
2023-02-24T01:24:44.348Z,28.80
2023-02-24T01:27:19.077Z,28.90
2023-02-24T01:29:47.723Z,28.23
2023-02-24T01:32:25.472Z,29.27
2023-02-24T01:34:53.575Z,29.20
2023-02-24T01:37:21.468Z,27.97
2023-02-24T01:39:50.279Z,29.30
2023-02-24T01:42:21.134Z,29.67
2023-02-24T01:44:48.369Z,29.10
2023-02-24T01:47:20.895Z,31.30
2023-02-24T01:49:52.796Z,31.13
2023-02-24T01:52:35.791Z,29.40
2023-02-24T01:55:22.931Z,30.30
2023-02-24T01:57:53.799Z,29.73
2023-02-24T02:00:50.777Z,29.40
2023-02-24T02:03:20.517Z,30.93
2023-02-24T02:05:48.683Z,30.33
2023-02-24T02:08:19.416Z,29.93
2023-02-24T02:10:47.642Z,31.67
2023-02-24T02:13:21.681Z,30.83
2023-02-24T02:16:14.484Z,35.23
2023-02-24T02:18:56.508Z,30.33
2023-02-24T02:22:02.361Z,31.47
2023-02-24T02:25:00.611Z,29.90
2023-02-24T02:27:58.430Z,31.50
2023-02-24T02:31:05.056Z,32.23
2023-02-24T02:33:44.367Z,29.30
2023-02-24T02:36:14.374Z,37.20
2023-02-24T02:39:04.139Z,33.93
2023-02-24T02:41:44.114Z,33.07
2023-02-24T02:44:57.949Z,31.90
2023-02-24T02:47:34.945Z,31.37
2023-02-24T02:50:13.196Z,34.37
2023-02-24T02:52:45.365Z,30.47
2023-02-24T02:55:17.712Z,32.53
2023-02-24T02:57:49.700Z,32.03
2023-02-24T03:00:24.497Z,31.90
2023-02-24T03:02:58.007Z,32.13
2023-02-24T03:05:30.120Z,31.37
2023-02-24T03:08:00.741Z,33.07
2023-02-24T03:10:30.241Z,33.73
2023-02-24T03:13:01.518Z,32.03
2023-02-24T03:15:33.107Z,32.83
2023-02-24T03:18:11.217Z,32.47
2023-02-24T03:20:57.590Z,32.20
2023-02-24T03:23:30.967Z,31.87
2023-02-24T03:26:22.032Z,33.67
2023-02-24T03:28:59.304Z,31.63
2023-02-24T03:32:13.300Z,32.53
2023-02-24T03:35:22.352Z,34.87
2023-02-24T03:37:51.064Z,31.90
2023-02-24T03:40:20.858Z,33.07
2023-02-24T03:42:52.152Z,31.27
2023-02-24T03:45:22.939Z,31.23
2023-02-24T03:47:54.419Z,31.47
2023-02-24T03:50:22.675Z,29.87
2023-02-24T03:53:40.459Z,31.73
2023-02-24T03:56:30.034Z,31.73
2023-02-24T03:59:04.472Z,29.90
2023-02-24T04:01:42.361Z,31.27
2023-02-24T04:04:30.077Z,32.67
2023-02-24T04:07:32.519Z,31.33
2023-02-24T04:10:15.526Z,31.97
2023-02-24T04:12:50.886Z,30.37
2023-02-24T04:15:26.510Z,29.83
2023-02-24T04:17:57.758Z,32.50
2023-02-24T04:20:32.085Z,37.33
2023-02-24T04:23:10.623Z,36.70
2023-02-24T04:25:40.772Z,39.37
2023-02-24T04:28:09.988Z,32.20
2023-02-24T04:30:44.252Z,35.40
2023-02-24T04:33:13.066Z,34.10
2023-02-24T04:35:40.703Z,34.73
2023-02-24T04:38:08.524Z,36.97
2023-02-24T04:40:37.169Z,38.27
2023-02-24T04:43:04.629Z,35.37
2023-02-24T04:45:32.842Z,33.73
2023-02-24T04:48:17.463Z,34.10
2023-02-24T04:51:00.663Z,37.43
2023-02-24T04:53:28.297Z,34.13
2023-02-24T04:55:58.917Z,33.03
2023-02-24T04:58:28.132Z,33.73
2023-02-24T05:00:56.600Z,33.40
2023-02-24T05:03:28.397Z,36.23
2023-02-24T05:06:02.710Z,37.43
2023-02-24T05:08:31.014Z,34.70
2023-02-24T05:11:00.400Z,34.83
2023-02-24T05:13:31.613Z,33.87
2023-02-24T05:16:04.766Z,33.77
2023-02-24T05:18:38.612Z,33.47
2023-02-24T05:21:38.603Z,37.50
2023-02-24T05:24:11.385Z,37.43
2023-02-24T05:26:42.000Z,37.27
2023-02-24T05:29:11.017Z,47.93
2023-02-24T05:31:38.943Z,43.27
2023-02-24T05:34:16.353Z,40.97
2023-02-24T05:36:45.978Z,41.90
2023-02-24T05:39:21.966Z,36.40
2023-02-24T05:41:49.877Z,36.93
2023-02-24T05:44:23.471Z,34.93
2023-02-24T05:46:58.395Z,38.77
2023-02-24T05:49:39.970Z,34.30
2023-02-24T05:52:09.430Z,35.50
2023-02-24T05:54:42.071Z,41.23
2023-02-24T05:57:13.394Z,37.17
2023-02-24T05:59:42.378Z,35.97
2023-02-24T06:02:13.579Z,34.57
2023-02-24T06:04:53.889Z,34.20
2023-02-24T06:07:28.659Z,35.97
2023-02-24T06:09:58.349Z,36.77
2023-02-24T06:12:31.420Z,33.23
2023-02-24T06:15:03.114Z,36.20
2023-02-24T06:17:30.392Z,41.87
2023-02-24T06:19:58.853Z,32.67
2023-02-24T06:22:28.536Z,35.93
2023-02-24T06:24:57.112Z,38.77
2023-02-24T06:27:25.322Z,34.77
2023-02-24T06:29:54.919Z,37.30
2023-02-24T06:32:25.117Z,36.93
2023-02-24T06:34:53.879Z,33.67
2023-02-24T06:37:23.406Z,40.33
2023-02-24T06:39:53.262Z,39.03
2023-02-24T06:42:20.673Z,36.23
2023-02-24T06:44:49.438Z,35.97
2023-02-24T06:47:19.599Z,37.53
2023-02-24T06:49:50.196Z,38.37
2023-02-24T06:52:23.636Z,37.37
2023-02-24T06:54:52.342Z,35.47
2023-02-24T06:57:20.821Z,36.70
2023-02-24T06:59:49.043Z,37.00
2023-02-24T07:02:17.644Z,39.90
2023-02-24T07:04:44.980Z,34.57
2023-02-24T07:07:14.309Z,34.50
2023-02-24T07:09:48.563Z,35.00
2023-02-24T07:12:21.112Z,32.47
2023-02-24T07:14:51.606Z,32.90
2023-02-24T07:17:19.020Z,34.23
2023-02-24T07:19:46.408Z,32.50
2023-02-24T07:22:16.874Z,33.33
2023-02-24T07:24:46.372Z,34.07
2023-02-24T07:27:22.398Z,36.67
2023-02-24T07:29:53.392Z,33.20
2023-02-24T07:32:25.899Z,31.43
2023-02-24T07:34:53.654Z,36.10
2023-02-24T07:37:21.234Z,32.20
2023-02-24T07:39:48.617Z,32.20
2023-02-24T07:42:18.977Z,33.30
2023-02-24T07:44:49.493Z,39.27
2023-02-24T07:47:17.105Z,32.40
2023-02-24T07:49:49.721Z,33.83
2023-02-24T07:52:17.708Z,32.07
2023-02-24T07:54:45.228Z,32.40
2023-02-24T07:57:13.534Z,33.00
2023-02-24T07:59:49.107Z,30.33
2023-02-24T08:02:18.509Z,29.63
2023-02-24T08:04:54.651Z,33.90
2023-02-24T08:07:25.000Z,29.20
2023-02-24T08:10:12.035Z,31.67
2023-02-24T08:12:43.887Z,32.77
2023-02-24T08:15:17.683Z,32.47
2023-02-24T08:17:47.670Z,30.47
2023-02-24T08:20:15.399Z,30.20
2023-02-24T08:22:46.804Z,33.50
2023-02-24T08:25:19.198Z,28.57
2023-02-24T08:28:07.485Z,28.83
2023-02-24T08:30:47.334Z,27.90
2023-02-24T08:33:24.331Z,32.43
2023-02-24T08:36:01.954Z,28.27
2023-02-24T08:38:44.493Z,26.50
2023-02-24T08:41:18.422Z,30.60
2023-02-24T08:43:47.179Z,24.53
2023-02-24T08:46:21.481Z,28.00
2023-02-24T08:49:03.792Z,28.37
2023-02-24T08:51:37.567Z,21.93
2023-02-24T08:54:11.197Z,23.40
2023-02-24T08:56:45.594Z,21.83
2023-02-24T08:59:29.266Z,20.40
2023-02-24T09:02:18.145Z,19.70
2023-02-24T09:04:49.580Z,22.03
2023-02-24T09:07:21.325Z,18.90
2023-02-24T09:09:49.702Z,18.47
2023-02-24T09:12:24.729Z,20.57
2023-02-24T09:14:57.973Z,18.77
2023-02-24T09:17:40.447Z,19.67
2023-02-24T09:20:38.932Z,20.80
2023-02-24T09:23:10.011Z,18.03
2023-02-24T09:25:45.005Z,19.20
2023-02-24T09:28:25.184Z,17.13
2023-02-24T09:30:55.685Z,19.33
2023-02-24T09:33:42.195Z,16.40
2023-02-24T09:36:20.661Z,16.43
2023-02-24T09:39:00.815Z,16.03
2023-02-24T09:41:54.040Z,15.83
2023-02-24T09:44:35.580Z,17.07
2023-02-24T09:47:18.873Z,15.83
2023-02-24T09:49:56.419Z,14.77
2023-02-24T09:52:42.617Z,15.23
2023-02-24T09:55:46.011Z,13.40
2023-02-24T09:58:43.022Z,12.23
2023-02-24T10:01:56.665Z,9.47
2023-02-24T10:04:49.492Z,9.27
2023-02-24T10:07:23.606Z,10.13
2023-02-24T10:10:19.346Z,10.80
2023-02-24T10:12:54.619Z,9.40
2023-02-24T10:15:47.452Z,10.47
2023-02-24T10:18:31.724Z,10.23
2023-02-24T10:21:48.353Z,9.60
2023-02-24T10:24:29.677Z,7.50
2023-02-24T10:27:25.855Z,6.73
2023-02-24T10:30:27.883Z,7.20
2023-02-24T10:32:59.042Z,6.60
2023-02-24T10:35:33.542Z,7.27
2023-02-24T10:38:05.626Z,5.17
2023-02-24T10:40:47.093Z,4.97
2023-02-24T10:43:20.685Z,7.13
2023-02-24T10:45:48.632Z,4.83
2023-02-24T10:48:40.169Z,4.93
2023-02-24T10:51:19.630Z,4.37
2023-02-24T10:54:22.355Z,4.77
2023-02-24T10:57:29.589Z,3.93
2023-02-24T11:00:19.024Z,3.77
2023-02-24T11:03:09.988Z,6.60
2023-02-24T11:06:06.813Z,5.27
2023-02-24T11:08:36.949Z,4.53
2023-02-24T11:11:19.971Z,2.67
2023-02-24T11:14:11.371Z,3.97
2023-02-24T11:17:10.595Z,6.97
2023-02-24T11:19:55.569Z,6.47
2023-02-24T11:22:30.847Z,5.80
2023-02-24T11:25:04.899Z,4.10
2023-02-24T11:27:33.397Z,5.17
2023-02-24T11:30:10.599Z,4.90
2023-02-24T11:32:50.502Z,7.97
2023-02-24T11:35:22.430Z,7.07
2023-02-24T11:38:20.990Z,9.00
2023-02-24T11:40:56.036Z,10.80
2023-02-24T11:43:28.481Z,11.67
2023-02-24T11:46:09.904Z,11.90
2023-02-24T11:48:47.113Z,11.43
2023-02-24T11:51:23.744Z,13.80
2023-02-24T11:54:00.405Z,14.67
2023-02-24T11:56:36.516Z,16.40
2023-02-24T11:59:29.157Z,16.57
2023-02-24T12:02:03.999Z,15.73
2023-02-24T12:05:07.171Z,15.77
2023-02-24T12:07:46.404Z,16.33
2023-02-24T12:10:17.974Z,15.77
2023-02-24T12:13:10.723Z,15.27
2023-02-24T12:15:47.214Z,14.70
2023-02-24T12:18:37.331Z,13.37
2023-02-24T12:21:10.185Z,13.63
2023-02-24T12:23:41.197Z,16.37
2023-02-24T12:26:47.856Z,12.90
2023-02-24T12:29:35.407Z,14.40
2023-02-24T12:32:24.101Z,19.70
2023-02-24T12:35:29.499Z,57.27
2023-02-24T12:38:09.388Z,15.13
2023-02-24T12:40:47.873Z,12.67
2023-02-24T12:43:56.554Z,28.27
2023-02-24T12:46:36.161Z,29.03
2023-02-24T12:49:22.113Z,18.30
2023-02-24T12:52:27.033Z,14.53
2023-02-24T12:55:22.307Z,14.07
2023-02-24T12:58:04.981Z,14.33
2023-02-24T13:01:05.014Z,12.60
2023-02-24T13:03:53.625Z,13.50
2023-02-24T13:06:55.201Z,12.87
2023-02-24T13:09:22.519Z,21.77
2023-02-24T13:11:58.143Z,16.03
2023-02-24T13:14:38.199Z,26.77
2023-02-24T13:17:12.562Z,15.23
2023-02-24T13:19:43.438Z,63.77
2023-02-24T13:22:13.881Z,18.73
2023-02-24T13:24:58.891Z,14.87
2023-02-24T13:27:28.984Z,23.20
2023-02-24T13:30:11.719Z,16.17
2023-02-24T13:32:42.660Z,21.83
2023-02-24T13:35:18.498Z,14.93
2023-02-24T13:37:49.227Z,22.40
2023-02-24T13:40:19.032Z,24.37
2023-02-24T13:43:01.466Z,22.20
2023-02-24T13:45:36.739Z,46.93
2023-02-24T13:48:21.381Z,64.93
2023-02-24T13:51:19.352Z,66.83
2023-02-24T13:54:08.096Z,22.40
2023-02-24T13:56:55.244Z,24.40
2023-02-24T13:59:31.590Z,25.83
2023-02-24T14:02:01.865Z,42.00
2023-02-24T14:04:35.577Z,34.80
2023-02-24T14:07:09.245Z,31.73
2023-02-24T14:09:47.061Z,29.77
2023-02-24T14:12:21.246Z,21.10
2023-02-24T14:14:50.204Z,26.67
2023-02-24T14:17:26.203Z,19.57
2023-02-24T14:19:53.661Z,20.63
2023-02-24T14:22:22.179Z,21.07
2023-02-24T14:24:49.572Z,20.43
2023-02-24T14:27:26.576Z,23.13
2023-02-24T14:29:54.148Z,26.33
2023-02-24T14:32:24.750Z,27.80
2023-02-24T14:34:55.686Z,24.97
2023-02-24T14:37:30.297Z,26.20
2023-02-24T14:40:00.169Z,27.80
2023-02-24T14:42:28.214Z,51.13
2023-02-24T14:44:57.620Z,28.87
2023-02-24T14:47:29.192Z,26.27
2023-02-24T14:49:59.861Z,31.20
2023-02-24T14:52:39.652Z,26.97
2023-02-24T14:55:21.988Z,27.33
2023-02-24T14:58:01.078Z,26.93
2023-02-24T15:00:39.389Z,27.83
2023-02-24T15:03:14.835Z,27.27
2023-02-24T15:05:49.119Z,28.00
2023-02-24T15:08:38.781Z,26.00
2023-02-24T15:11:23.165Z,31.07
2023-02-24T15:13:57.000Z,142.67
2023-02-24T15:16:43.046Z,57.20
2023-02-24T15:19:48.388Z,33.50
2023-02-24T15:22:33.577Z,30.50
2023-02-24T15:25:16.265Z,26.93
2023-02-24T15:27:52.397Z,26.90
2023-02-24T15:30:30.584Z,29.03
2023-02-24T15:33:06.805Z,29.00
2023-02-24T15:35:39.131Z,28.67
2023-02-24T15:38:06.843Z,29.23
2023-02-24T15:40:40.625Z,27.73
2023-02-24T15:43:10.834Z,28.50
2023-02-24T15:45:39.951Z,27.40
2023-02-24T15:48:27.851Z,26.13
2023-02-24T15:51:03.251Z,27.90
2023-02-24T15:53:30.571Z,36.77
2023-02-24T15:55:57.853Z,28.23
2023-02-24T15:58:26.801Z,30.97
2023-02-24T16:00:57.980Z,29.00
2023-02-24T16:03:26.408Z,28.90
2023-02-24T16:05:53.995Z,29.63
2023-02-24T16:08:22.137Z,37.07
2023-02-24T16:10:50.484Z,36.87
2023-02-24T16:13:20.282Z,34.23
2023-02-24T16:15:48.264Z,30.03
2023-02-24T16:18:22.397Z,29.93
2023-02-24T16:20:54.725Z,28.50
2023-02-24T16:23:23.867Z,26.83
2023-02-24T16:25:55.684Z,27.33
2023-02-24T16:28:23.486Z,26.53
2023-02-24T16:30:52.266Z,26.97
2023-02-24T16:33:22.672Z,26.07
2023-02-24T16:35:55.456Z,28.07
2023-02-24T16:38:26.701Z,30.80
2023-02-24T16:40:56.842Z,38.07
2023-02-24T16:43:24.879Z,32.23
2023-02-24T16:45:54.994Z,27.30
2023-02-24T16:48:25.997Z,29.20
2023-02-24T16:50:53.540Z,32.30
2023-02-24T16:53:23.920Z,28.13
2023-02-24T16:55:53.000Z,28.40
2023-02-24T16:58:23.266Z,26.60
2023-02-24T17:00:54.387Z,26.00
2023-02-24T17:03:27.668Z,29.07
2023-02-24T17:05:55.490Z,27.17
2023-02-24T17:08:23.296Z,27.23
2023-02-24T17:10:52.354Z,30.30
2023-02-24T17:13:22.005Z,27.23
2023-02-24T17:15:55.202Z,26.57
2023-02-24T17:18:24.133Z,26.73
2023-02-24T17:20:51.921Z,27.57
2023-02-24T17:23:19.739Z,26.73
2023-02-24T17:25:53.333Z,28.63
2023-02-24T17:28:21.150Z,31.77
2023-02-24T17:30:49.648Z,26.80
2023-02-24T17:33:17.357Z,28.43
2023-02-24T17:35:47.133Z,27.70
2023-02-24T17:38:20.450Z,29.40
2023-02-24T17:40:48.437Z,28.50
2023-02-24T17:43:16.091Z,26.60
2023-02-24T17:45:45.500Z,27.30
2023-02-24T17:48:14.614Z,28.37
2023-02-24T17:50:44.020Z,32.53
2023-02-24T17:53:12.204Z,28.50
2023-02-24T17:55:55.811Z,31.80
2023-02-24T17:58:27.203Z,30.87
2023-02-24T18:00:54.543Z,27.90
2023-02-24T18:03:21.921Z,30.67
2023-02-24T18:06:02.445Z,28.40
2023-02-24T18:08:30.810Z,29.77
2023-02-24T18:10:59.162Z,31.00
2023-02-24T18:13:28.166Z,38.20
2023-02-24T18:16:01.110Z,37.40
2023-02-24T18:18:30.316Z,30.60
2023-02-24T18:21:02.428Z,30.37
2023-02-24T18:23:29.972Z,29.87
2023-02-24T18:26:01.349Z,25.10
2023-02-24T18:28:29.171Z,22.93
2023-02-24T18:30:56.768Z,20.53
2023-02-24T18:33:24.353Z,17.60
2023-02-24T18:36:05.350Z,14.17
2023-02-24T18:38:32.855Z,12.87
2023-02-24T18:41:15.739Z,11.83
2023-02-24T18:43:44.019Z,14.00
2023-02-24T18:46:13.881Z,14.53
2023-02-24T18:48:44.518Z,14.10
2023-02-24T18:51:17.194Z,11.67
2023-02-24T18:53:45.310Z,12.20
2023-02-24T18:56:20.643Z,12.17
2023-02-24T18:58:51.626Z,12.17
2023-02-24T19:01:27.974Z,10.37
2023-02-24T19:03:59.101Z,15.13
2023-02-24T19:06:28.238Z,10.90
2023-02-24T19:09:02.451Z,9.73
2023-02-24T19:11:30.313Z,9.37
2023-02-24T19:14:00.232Z,8.30
2023-02-24T19:16:28.167Z,10.23
2023-02-24T19:18:57.302Z,11.73
2023-02-24T19:21:26.697Z,9.70
2023-02-24T19:23:54.756Z,8.57
2023-02-24T19:26:27.403Z,11.10
2023-02-24T19:28:57.178Z,9.10
2023-02-24T19:31:28.444Z,11.83
2023-02-24T19:34:00.242Z,9.73
2023-02-24T19:36:29.256Z,9.60
2023-02-24T19:38:56.545Z,13.97
2023-02-24T19:41:24.416Z,10.90
2023-02-24T19:43:51.730Z,10.23
2023-02-24T19:46:19.556Z,9.03
2023-02-24T19:48:47.233Z,8.87
2023-02-24T19:51:20.759Z,11.23
2023-02-24T19:53:57.118Z,9.20
2023-02-24T19:56:26.453Z,13.67
2023-02-24T19:58:55.265Z,9.80
2023-02-24T20:01:28.419Z,13.97
2023-02-24T20:03:57.917Z,13.30
2023-02-24T20:06:31.035Z,10.37
2023-02-24T20:08:59.347Z,9.23
2023-02-24T20:11:28.726Z,16.50
2023-02-24T20:13:57.385Z,18.77
2023-02-24T20:16:27.364Z,14.87
2023-02-24T20:18:55.513Z,13.80
2023-02-24T20:21:23.215Z,14.93
2023-02-24T20:23:51.330Z,15.47
2023-02-24T20:26:19.541Z,13.23
2023-02-24T20:28:47.772Z,13.40
2023-02-24T20:31:21.185Z,14.17
2023-02-24T20:33:49.373Z,17.63
2023-02-24T20:36:22.787Z,11.33
2023-02-24T20:38:51.760Z,15.03
2023-02-24T20:41:21.448Z,14.00
2023-02-24T20:43:49.183Z,11.17
2023-02-24T20:46:27.382Z,10.47
2023-02-24T20:49:01.282Z,10.00
2023-02-24T20:51:30.825Z,12.83
2023-02-24T20:53:58.815Z,7.60
2023-02-24T20:56:33.061Z,8.10
2023-02-24T20:59:04.103Z,9.87
2023-02-24T21:01:32.625Z,7.83
2023-02-24T21:04:00.856Z,5.17
2023-02-24T21:06:30.137Z,5.20
2023-02-24T21:09:05.902Z,7.10
2023-02-24T21:11:34.043Z,11.20
2023-02-24T21:14:01.471Z,4.57
2023-02-24T21:19:11.880Z,4.97
2023-02-24T21:21:39.203Z,5.53
2023-02-24T21:24:07.084Z,6.63
2023-02-24T21:26:34.396Z,6.10
2023-02-24T21:29:01.611Z,4.77
2023-02-24T21:31:29.001Z,3.47
2023-02-24T21:33:56.722Z,4.50
2023-02-24T21:36:26.229Z,4.07
2023-02-24T21:38:54.405Z,5.20
2023-02-24T21:41:23.585Z,6.40
2023-02-24T21:43:55.647Z,4.77
2023-02-24T21:46:28.444Z,6.60
2023-02-24T21:48:57.739Z,6.73
2023-02-24T21:51:26.525Z,8.87
2023-02-24T21:53:56.759Z,7.80
2023-02-24T21:56:27.822Z,9.17
2023-02-24T21:59:06.512Z,8.40
2023-02-24T22:01:36.930Z,7.13
2023-02-24T22:04:07.359Z,8.47
2023-02-24T22:06:42.969Z,6.23
2023-02-24T22:09:20.302Z,9.00
2023-02-24T22:11:49.446Z,6.50
2023-02-24T22:14:17.538Z,9.77
2023-02-24T22:16:51.088Z,10.10
2023-02-24T22:19:19.750Z,11.20
2023-02-24T22:21:47.229Z,7.03
2023-02-24T22:24:18.672Z,7.40
2023-02-24T22:26:46.356Z,7.27
2023-02-24T22:29:13.752Z,10.20
2023-02-24T22:31:44.063Z,10.40
2023-02-24T22:34:12.318Z,10.00
2023-02-24T22:36:39.887Z,7.93
2023-02-24T22:39:10.416Z,9.17
2023-02-24T22:41:38.663Z,9.00
2023-02-24T22:44:06.761Z,9.63
2023-02-24T22:46:39.682Z,6.23
2023-02-24T22:49:11.397Z,8.50
2023-02-24T22:51:39.039Z,7.00
2023-02-24T22:54:06.552Z,5.20
2023-02-24T22:56:34.519Z,4.37
2023-02-24T22:59:02.068Z,10.70
2023-02-24T23:01:35.981Z,14.13
2023-02-24T23:04:08.236Z,5.67
2023-02-24T23:06:36.271Z,6.13
2023-02-24T23:09:05.304Z,6.27
2023-02-24T23:11:34.870Z,9.43
2023-02-24T23:14:04.316Z,5.20
2023-02-24T23:16:37.061Z,7.23
2023-02-24T23:19:13.073Z,10.43
2023-02-24T23:21:43.907Z,4.27
2023-02-24T23:24:16.506Z,3.70
2023-02-24T23:26:54.091Z,3.47
2023-02-24T23:29:24.583Z,7.40
2023-02-24T23:31:53.108Z,7.83
2023-02-24T23:34:22.566Z,8.80
2023-02-24T23:36:50.065Z,3.50
2023-02-24T23:39:26.338Z,4.47
2023-02-24T23:41:57.573Z,3.37
2023-02-24T23:44:25.318Z,5.27
2023-02-24T23:46:52.694Z,3.47
2023-02-24T23:49:20.435Z,4.47
2023-02-24T23:51:49.131Z,4.73
2023-02-24T23:54:18.214Z,8.67
2023-02-24T23:56:46.713Z,5.23
2023-02-24T23:59:18.215Z,6.13
